Creil, France

6:41 PM CEST on March 29, 2015 (GMT +0200)
Creil Air Base | | Change Station
CLOSE
Current Station
Airport
Location: Creil,
Elevation: 289 ft
Nearby Weather Stations

Elev 289 ft 49.25 °N, 2.52 °E | Updated 11 minutes ago

Light Rain
Light Rain
52 °F
Feels Like 52 °F
N
21
Wind Variable Wind from WSW

Today
High -- | Low -- °F
--% Chance of Precip.
Yesterday
High -- | Low -- °F
Precip. -- in
7:34 AM 8:15 PM
Waxing Gibbous, 72% visible
Pressure 29.65 in
Visibility 5.6 miles
Clouds Mostly Cloudy 900 ft
Mostly Cloudy 1400 ft
Overcast 2000 ft
Dew Point 52 °F
Humidity 100%
Rainfall 0.00 in
Snow Depth Not available.
UV 0 out of 12
Pollen Not available.
Air Quality Not available.
Flu Activity Not available.
METAR LFPC 291630Z AUTO 24018KT 9000 -RA BKN009 BKN014 OVC020 11/11 Q1004

More Conditions Fewer Conditions

Pressure 29.65 in
Visibility 5.6 miles
Clouds Mostly Cloudy 900 ft
Mostly Cloudy 1400 ft
Overcast 2000 ft
Dew Point 52 °F
Humidity 100%
Rainfall 0.00 in
Snow Depth Not available.
UV 0 out of 12
Pollen Not available.
Air Quality Not available.
Flu Activity Not available.
METAR LFPC 291630Z AUTO 24018KT 9000 -RA BKN009 BKN014 OVC020 11/11 Q1004

More Conditions Fewer Conditions

10-Day Weather Forecast

Almanac

Astronomy

Mar. 29, 2015 Rise Set
Actual Time
Civil Twilight
Nautical Twilight
Astronomical Twilight
Moon
Length of Visible Light
Length of Day
Tomorrow will be .
, % of the Moon is Illuminated

Today's Extremes

Country Highs Country Lows

Community

WunderPhotos

Upload Photos

1,809,289 photos uploaded!

WunderBlogs® & News

Nearby

Air Quality

  Air Quality AQ Index Pollutant
Not available.

Snow Depth

Station Depth Elevation

Earthquake Activity

City Distance Mag. Time & Date
Minimum magnitude displayed is 2.5.

Coastal Water Temperatures

Place Temperature

Stations

Nearby Weather Stations

Station Location Temp. Windchill Dew Point Humidity Wind Precip. Elev Updated Type